Time;durP1;ratioP1;P1;durP2;ratioP2;P2;SDS_P1;SDS_P2;PMS_P1;PMS_P2;Temp;Humidity;BMP_temperature;BMP_pressure;BME280_temperature;BME280_humidity;BME280_pressure;Samples;Min_cycle;Max_cycle;Signal;HPM_P1;HPM_P2
2023/04/07 07:23:08;;;;;;;20.83;14.52;;;;;;;-145.79;99.13;78401.19;5316722;27;1473834;-74
2023/04/07 07:25:40;;;;;;;21.25;13.07;;;;;;;-145.79;99.50;78367.25;5330003;27;20036;-70
2023/04/07 07:28:11;;;;;;;20.65;11.50;;;;;;;-145.79;98.66;78350.31;5324774;28;20470;-72
2023/04/07 07:30:42;;;;;;;18.65;11.52;;;;;;;-145.79;97.40;78350.31;5331944;28;20024;-71
2023/04/07 07:33:14;;;;;;;14.50;11.00;;;;;;;-145.79;96.56;78326.97;5325756;27;20130;-72
2023/04/07 07:35:45;;;;;;;14.82;10.88;;;;;;;-145.79;95.98;78314.25;5339265;28;20042;-72
2023/04/07 07:38:17;;;;;;;21.73;11.48;;;;;;;-145.79;95.10;78312.13;5327785;27;20031;-77
2023/04/07 07:40:48;;;;;;;14.85;10.30;;;;;;;-145.79;93.63;78333.34;5320643;28;20125;-78
2023/04/07 07:43:19;;;;;;;12.55;8.70;;;;;;;-145.79;92.84;78322.75;5342512;28;20110;-76
2023/04/07 07:45:50;;;;;;;15.88;6.57;;;;;;;-145.79;91.03;78329.09;5329491;27;20494;-76
2023/04/07 07:48:25;;;;;;;9.35;6.40;;;;;;;-145.79;90.07;78335.47;5337323;28;20027;-76
2023/04/07 07:50:56;;;;;;;8.93;6.88;;;;;;;-145.79;91.11;78307.91;5321883;27;20031;-77
2023/04/07 07:53:28;;;;;;;10.27;6.18;;;;;;;-145.79;89.02;78335.47;5321969;28;20038;-77
2023/04/07 07:56:00;;;;;;;11.05;6.55;;;;;;;-145.79;90.28;78322.75;5343173;28;20024;-74
2023/04/07 07:58:31;;;;;;;8.35;5.75;;;;;;;-145.79;88.60;78337.59;5344633;27;20428;-75
2023/04/07 08:01:02;;;;;;;9.27;6.18;;;;;;;-145.79;88.87;78341.81;5342418;27;20117;-76
2023/04/07 08:03:34;;;;;;;14.13;9.40;;;;;;;-145.79;88.14;78343.94;5342280;28;20103;-76
2023/04/07 08:06:06;;;;;;;16.38;13.20;;;;;;;-145.79;86.89;78341.81;5336047;27;20077;-77
2023/04/07 08:08:38;;;;;;;17.17;12.82;;;;;;;-145.79;86.85;78343.94;5321735;28;20020;-76
2023/04/07 08:11:12;;;;;;;7.70;5.00;;;;;;;-145.79;85.90;78354.53;5322135;28;20042;-76
2023/04/07 08:13:45;;;;;;;9.25;4.85;;;;;;;-145.79;85.71;78354.53;5321609;28;20024;-75
2023/04/07 08:16:16;;;;;;;10.55;4.68;;;;;;;-145.79;86.15;78356.66;5319052;28;20019;-76
2023/04/07 08:18:47;;;;;;;7.07;4.63;;;;;;;-145.79;86.00;78352.44;5345729;27;20050;-76
2023/04/07 08:21:19;;;;;;;5.90;4.65;;;;;;;-145.79;86.71;78350.31;5342237;27;20043;-76
2023/04/07 08:23:52;;;;;;;9.43;5.28;;;;;;;-145.79;86.65;78356.66;5327807;27;20142;-76
2023/04/07 08:26:23;;;;;;;6.45;4.68;;;;;;;-145.79;86.88;78339.69;5320523;28;20020;-75
2023/04/07 08:28:55;;;;;;;8.00;4.57;;;;;;;-145.79;86.62;78335.47;5321216;28;20027;-75
2023/04/07 08:31:26;;;;;;;7.68;4.50;;;;;;;-145.79;85.95;78339.69;5319973;28;20031;-75
2023/04/07 08:33:58;;;;;;;8.57;5.47;;;;;;;-145.79;86.64;78337.59;5308921;28;20024;-75
2023/04/07 08:36:30;;;;;;;9.48;5.35;;;;;;;-145.79;86.70;78341.81;5305515;28;20507;-74
2023/04/07 08:39:04;;;;;;;8.32;4.45;;;;;;;-145.79;87.65;78331.22;5305452;28;20024;-73
2023/04/07 08:41:37;;;;;;;11.15;5.88;;;;;;;-145.79;85.51;78331.22;5306679;28;20024;-73
2023/04/07 08:44:09;;;;;;;6.03;4.28;;;;;;;-145.79;85.67;78326.97;5305336;28;20491;-73
2023/04/07 08:46:40;;;;;;;5.60;4.18;;;;;;;-145.79;84.47;78343.94;5306448;28;20388;-74
2023/04/07 08:49:16;;;;;;;8.32;4.25;;;;;;;-145.79;83.30;78354.53;5315211;28;20019;-76
2023/04/07 08:51:50;;;;;;;11.18;3.78;;;;;;;-145.79;83.21;78356.66;5324323;28;20024;-75
2023/04/07 08:54:22;;;;;;;7.57;3.83;;;;;;;-145.79;84.11;78348.19;5313416;28;20101;-75
2023/04/07 08:56:54;;;;;;;8.57;3.60;;;;;;;-145.79;83.81;78341.81;5317855;28;20032;-73
2023/04/07 08:59:28;;;;;;;5.32;3.35;;;;;;;-145.79;83.36;78354.53;5326699;28;20474;-74
2023/04/07 09:02:00;;;;;;;7.68;3.72;;;;;;;-145.79;82.85;78356.66;5314329;28;20150;-74
2023/04/07 09:04:32;;;;;;;8.32;3.45;;;;;;;-145.79;82.64;78352.44;5310045;28;20032;-75
2023/04/07 09:07:03;;;;;;;5.80;3.13;;;;;;;-145.79;83.83;78339.69;5326812;28;20038;-74
2023/04/07 09:09:35;;;;;;;3.75;2.80;;;;;;;-145.79;83.21;78339.69;5318593;28;20028;-74
2023/04/07 09:12:06;;;;;;;6.35;4.15;;;;;;;-145.79;82.32;78324.84;5317623;28;20036;-72
2023/04/07 09:14:37;;;;;;;5.32;2.63;;;;;;;-145.79;82.14;78320.63;5317871;28;20043;-72
2023/04/07 09:17:09;;;;;;;5.03;3.15;;;;;;;-145.79;82.00;78293.06;5314217;28;20024;-72
2023/04/07 09:19:40;;;;;;;23.75;21.08;;;;;;;-145.79;80.80;78303.66;5304472;28;20106;-75
2023/04/07 09:22:13;;;;;;;14.20;10.90;;;;;;;-145.79;80.66;78301.53;5305319;28;20046;-74
2023/04/07 09:24:44;;;;;;;12.25;10.55;;;;;;;-145.79;80.36;78331.22;5321188;28;20024;-74
2023/04/07 09:27:18;;;;;;;5.05;3.40;;;;;;;-145.79;80.50;78339.69;5325114;28;20098;-75
2023/04/07 09:29:49;;;;;;;7.30;3.17;;;;;;;-145.79;80.53;78339.69;5327405;28;20051;-74
2023/04/07 09:32:46;;;;;;;10.05;3.78;;;;;;;-145.79;81.07;78335.47;5308555;28;20048;-75
2023/04/07 09:35:18;;;;;;;4.10;2.92;;;;;;;-145.79;80.74;78326.97;5300875;28;20043;-75
2023/04/07 09:38:03;;;;;;;6.05;3.20;;;;;;;-145.79;80.18;78331.22;5310449;28;20023;-75
2023/04/07 09:40:36;;;;;;;11.30;4.43;;;;;;;-145.79;80.67;78305.78;5304094;28;20032;-75
2023/04/07 09:43:14;;;;;;;5.93;2.45;;;;;;;-145.79;80.30;78299.41;5310658;28;20035;-75
2023/04/07 09:45:46;;;;;;;7.57;3.60;;;;;;;-145.79;79.26;78288.81;5325097;27;20019;-75
2023/04/07 09:48:19;;;;;;;5.05;3.53;;;;;;;-145.79;79.15;78288.81;5322112;28;20535;-75
2023/04/07 09:50:50;;;;;;;21.95;15.85;;;;;;;-145.79;79.26;78284.56;5325831;28;20032;-74
2023/04/07 09:53:40;;;;;;;7.25;3.67;;;;;;;-145.79;78.58;78284.56;5326163;28;20431;-75
2023/04/07 09:56:13;;;;;;;6.22;3.00;;;;;;;-145.79;79.23;78267.63;5325516;28;20024;-74
2023/04/07 09:58:46;;;;;;;8.40;3.35;;;;;;;-145.79;78.94;78280.34;5326488;28;20043;-74
2023/04/07 10:01:18;;;;;;;4.53;2.75;;;;;;;-145.79;79.27;78280.34;5325585;28;20428;-74
2023/04/07 10:03:50;;;;;;;9.32;3.85;;;;;;;-145.79;79.44;78290.94;5326201;28;20023;-74
2023/04/07 10:06:22;;;;;;;9.77;5.85;;;;;;;-145.79;80.46;78293.06;5307666;28;20035;-75
2023/04/07 10:08:53;;;;;;;8.23;3.28;;;;;;;-145.79;80.82;78301.53;5303917;28;20085;-75
2023/04/07 10:11:25;;;;;;;8.95;4.30;;;;;;;-145.79;80.53;78312.13;5305323;28;20028;-75
2023/04/07 10:13:56;;;;;;;8.13;3.30;;;;;;;-145.79;81.10;78305.78;5304795;28;20074;-78
2023/04/07 10:16:28;;;;;;;8.68;3.63;;;;;;;-145.79;80.29;78331.22;5303802;28;20115;-79
2023/04/07 10:19:00;;;;;;;15.05;9.07;;;;;;;-145.79;81.48;78322.75;5304381;28;20016;-77
2023/04/07 10:21:36;;;;;;;15.82;8.18;;;;;;;-145.79;80.91;78320.63;5304563;28;20043;-76
2023/04/07 10:24:41;;;;;;;10.27;3.83;;;;;;;-145.79;81.70;78314.25;5304107;28;20035;-78
2023/04/07 10:27:16;;;;;;;12.50;4.25;;;;;;;-145.79;80.06;78310.03;5316912;28;20116;-76
2023/04/07 10:29:51;;;;;;;8.68;3.65;;;;;;;-145.79;80.06;78318.50;5324844;28;20378;-75
2023/04/07 10:32:22;;;;;;;7.88;3.65;;;;;;;-145.79;79.87;78301.53;5325722;28;20028;-76
2023/04/07 10:34:56;;;;;;;76.95;69.10;;;;;;;-145.79;79.10;78297.31;5324402;28;20479;-75
2023/04/07 10:37:28;;;;;;;7.60;4.68;;;;;;;-145.79;76.82;78316.38;5324745;28;20056;-77
2023/04/07 10:40:17;;;;;;;7.13;3.35;;;;;;;-145.79;77.33;78307.91;5310250;28;20044;-81
2023/04/07 10:42:49;;;;;;;6.00;2.75;;;;;;;-145.79;77.18;78297.31;5304371;28;20105;-77
2023/04/07 10:45:53;;;;;;;7.53;3.47;;;;;;;-145.79;78.17;78288.81;5303258;28;20050;-76
2023/04/07 10:48:27;;;;;;;6.03;3.08;;;;;;;-145.79;77.02;78278.22;5313754;28;20510;-78
2023/04/07 10:51:04;;;;;;;13.18;8.15;;;;;;;-145.79;76.48;78284.56;5324546;28;20031;-77
2023/04/07 10:53:35;;;;;;;9.57;3.13;;;;;;;-145.79;76.13;78297.31;5325393;28;20045;-77
2023/04/07 10:56:07;;;;;;;7.10;3.03;;;;;;;-145.79;77.54;78301.53;5316812;28;20176;-77
2023/04/07 10:58:38;;;;;;;12.68;3.40;;;;;;;-145.79;76.62;78310.03;5301957;28;20047;-78
2023/04/07 11:01:09;;;;;;;10.90;3.50;;;;;;;-145.79;76.59;78310.03;5306751;28;20107;-77
2023/04/07 11:03:52;;;;;;;11.90;4.47;;;;;;;-145.79;77.05;78293.06;5317650;28;20352;-77
2023/04/07 11:06:25;;;;;;;6.47;3.35;;;;;;;-145.79;76.43;78280.34;5321425;28;20026;-78
2023/04/07 11:08:56;;;;;;;6.93;2.90;;;;;;;-145.79;77.30;78276.09;5303593;28;20031;-77
2023/04/07 11:11:37;;;;;;;5.57;2.40;;;;;;;-145.79;74.70;78307.91;5310530;28;20027;-78
2023/04/07 11:14:08;;;;;;;7.13;3.50;;;;;;;-145.79;75.45;78290.94;5320030;28;20028;-77
2023/04/07 11:16:42;;;;;;;5.28;2.88;;;;;;;-145.79;75.45;78267.63;5309857;28;20160;-78
2023/04/07 11:19:13;;;;;;;6.97;3.15;;;;;;;-145.79;73.99;78286.69;5302598;28;20061;-77
2023/04/07 11:21:45;;;;;;;4.63;2.17;;;;;;;-145.79;74.74;78263.38;5303491;28;20156;-77
2023/04/07 11:24:31;;;;;;;3.90;2.50;;;;;;;-145.79;74.36;78263.38;5303499;28;20020;-77
2023/04/07 11:27:03;;;;;;;6.05;3.05;;;;;;;-145.79;73.88;78246.41;5302519;28;20024;-77
2023/04/07 11:29:34;;;;;;;57.47;51.28;;;;;;;-145.79;72.78;78261.25;5306175;28;20038;-75
2023/04/07 11:32:06;;;;;;;10.45;5.05;;;;;;;-145.79;73.48;78246.41;5324558;28;20422;-76
2023/04/07 11:34:37;;;;;;;5.40;2.88;;;;;;;-145.79;73.19;78237.94;5311805;28;20059;-77
2023/04/07 11:37:27;;;;;;;5.72;2.78;;;;;;;-145.79;72.73;78246.41;5304900;28;20028;-77
2023/04/07 11:39:58;;;;;;;9.80;5.60;;;;;;;-145.79;72.68;78257.03;5323431;28;20084;-76
2023/04/07 11:42:37;;;;;;;7.55;3.75;;;;;;;-145.79;73.76;78257.03;5318669;28;20024;-76
2023/04/07 11:45:17;;;;;;;5.40;2.75;;;;;;;-145.79;73.45;78261.25;5308467;28;20020;-77
2023/04/07 11:47:49;;;;;;;7.15;3.33;;;;;;;-145.79;73.46;78263.38;5314112;28;20023;-76
2023/04/07 11:50:39;;;;;;;7.22;3.28;;;;;;;-145.79;73.88;78276.09;5324382;28;20042;-76
2023/04/07 11:53:10;;;;;;;10.07;5.90;;;;;;;-145.79;74.28;78286.69;5324591;28;20020;-80
2023/04/07 11:55:42;;;;;;;9.50;3.70;;;;;;;-145.79;74.93;78301.53;5323055;28;20020;-73
2023/04/07 11:58:13;;;;;;;5.72;3.60;;;;;;;-145.79;75.78;78297.31;5316214;28;20039;-77
2023/04/07 12:00:55;;;;;;;9.88;5.22;;;;;;;-145.79;76.14;78322.75;5301868;28;20172;-76
2023/04/07 12:03:27;;;;;;;8.07;3.30;;;;;;;-145.79;76.48;78310.03;5305531;28;20024;-75
2023/04/07 12:05:59;;;;;;;8.65;3.63;;;;;;;-145.79;76.13;78314.25;5324026;28;20023;-75
2023/04/07 12:08:37;;;;;;;8.77;3.47;;;;;;;-145.79;76.08;78318.50;5325381;28;20073;-78
2023/04/07 12:11:09;;;;;;;10.02;3.63;;;;;;;-145.79;77.06;78314.25;5328381;28;20463;-73
2023/04/07 12:13:41;;;;;;;14.40;4.38;;;;;;;-145.79;76.49;78337.59;5325789;28;20073;-75
2023/04/07 12:16:12;;;;;;;7.85;3.45;;;;;;;-145.79;76.98;78341.81;5305881;28;20061;-76
2023/04/07 12:18:44;;;;;;;6.25;2.83;;;;;;;-145.79;76.91;78331.22;5306948;28;20041;-75
2023/04/07 12:21:15;;;;;;;10.82;3.60;;;;;;;-145.79;76.22;78339.69;5315215;28;20461;-75
2023/04/07 12:23:47;;;;;;;12.00;3.95;;;;;;;-145.79;76.27;78314.25;5326920;28;20100;-75
2023/04/07 12:26:18;;;;;;;6.82;3.22;;;;;;;-145.79;75.34;78305.78;5328063;28;20043;-73
2023/04/07 12:28:50;;;;;;;6.78;3.00;;;;;;;-145.79;74.50;78301.53;5313617;28;20473;-73
2023/04/07 12:31:21;;;;;;;8.45;3.58;;;;;;;-145.79;73.53;78314.25;5306412;28;20336;-77
2023/04/07 12:33:52;;;;;;;6.57;2.70;;;;;;;-145.79;74.05;78335.47;5320122;28;20089;-77
2023/04/07 12:36:28;;;;;;;5.57;2.50;;;;;;;-145.79;74.15;78341.81;5326998;28;20023;-77
2023/04/07 12:38:59;;;;;;;6.13;3.10;;;;;;;-145.79;74.95;78335.47;5320655;28;20039;-75
2023/04/07 12:41:31;;;;;;;9.50;3.42;;;;;;;-145.79;74.47;78331.22;5320034;28;20020;-76
2023/04/07 12:44:02;;;;;;;6.70;2.90;;;;;;;-145.79;74.07;78320.63;5328054;28;20428;-77
2023/04/07 12:46:37;;;;;;;7.47;2.58;;;;;;;-145.79;73.15;78329.09;5324412;28;20100;-69
2023/04/07 12:49:08;;;;;;;8.82;3.75;;;;;;;-145.79;73.66;78329.09;5306417;28;20024;-70
2023/04/07 12:51:40;;;;;;;10.18;3.00;;;;;;;-145.79;73.87;78331.22;5304807;28;20089;-72
2023/04/07 12:54:11;;;;;;;5.63;2.80;;;;;;;-145.79;74.98;78326.97;5305093;28;20032;-74
2023/04/07 12:56:42;;;;;;;7.15;3.53;;;;;;;-145.79;75.16;78329.09;5314925;28;20651;-74
2023/04/07 12:59:14;;;;;;;70.22;62.70;;;;;;;-145.79;75.77;78316.38;5303985;28;20039;-74
2023/04/07 13:01:45;;;;;;;12.52;8.60;;;;;;;-145.79;75.76;78314.25;5314529;28;20031;-74
2023/04/07 13:04:16;;;;;;;11.93;5.55;;;;;;;-145.79;75.59;78297.31;5325236;28;20051;-74
2023/04/07 13:06:48;;;;;;;7.47;4.47;;;;;;;-145.79;74.58;78301.53;5325930;28;20034;-75
2023/04/07 13:09:19;;;;;;;7.60;3.47;;;;;;;-145.79;74.62;78310.03;5326432;28;20034;-74
2023/04/07 13:11:50;;;;;;;13.13;6.32;;;;;;;-145.79;74.01;78314.25;5319220;28;20031;-73
2023/04/07 13:14:22;;;;;;;14.00;5.95;;;;;;;-145.79;74.42;78314.25;5315797;28;20382;-72
2023/04/07 13:16:53;;;;;;;8.82;4.25;;;;;;;-145.79;74.72;78322.75;5316711;28;20036;-75
2023/04/07 13:19:25;;;;;;;9.60;3.67;;;;;;;-145.79;74.73;78324.84;5324205;28;20278;-75
2023/04/07 13:21:56;;;;;;;7.22;3.67;;;;;;;-145.79;74.71;78318.50;5326395;27;20075;-75
2023/04/07 13:24:28;;;;;;;8.02;3.67;;;;;;;-145.79;75.65;78303.66;5320446;28;20016;-78
2023/04/07 13:26:59;;;;;;;6.95;2.60;;;;;;;-145.79;73.37;78331.22;5303727;28;20054;-76
2023/04/07 13:29:32;;;;;;;9.18;2.85;;;;;;;-145.79;73.70;78318.50;5302602;28;20379;-79
2023/04/07 13:32:07;;;;;;;7.20;2.72;;;;;;;-145.79;72.55;78329.09;5323266;28;20028;-78
2023/04/07 13:34:38;;;;;;;7.93;3.38;;;;;;;-145.79;72.54;78326.97;5312277;28;20039;-76
2023/04/07 13:37:10;;;;;;;38.65;34.05;;;;;;;-145.79;73.71;78297.31;5302572;28;20028;-75
2023/04/07 13:39:41;;;;;;;15.77;11.52;;;;;;;-145.79;72.63;78312.13;5302486;28;20020;-74
2023/04/07 13:42:16;;;;;;;5.40;3.10;;;;;;;-145.79;73.04;78310.03;5304007;28;20036;-75
2023/04/07 13:44:49;;;;;;;7.27;3.33;;;;;;;-145.79;73.10;78301.53;5304171;28;20059;-75
2023/04/07 13:47:21;;;;;;;7.15;2.90;;;;;;;-145.79;72.59;78326.97;5312913;28;20034;-75
2023/04/07 13:49:52;;;;;;;9.88;4.30;;;;;;;-145.79;73.57;78305.78;5323958;28;20032;-75
2023/04/07 13:52:23;;;;;;;7.00;4.00;;;;;;;-145.79;72.82;78318.50;5322823;28;20073;-74
2023/04/07 13:54:56;;;;;;;10.45;5.78;;;;;;;-145.79;73.71;78301.53;5302180;28;20057;-74
2023/04/07 13:57:27;;;;;;;7.82;3.65;;;;;;;-145.79;73.53;78322.75;5303227;28;20094;-76
2023/04/07 13:59:59;;;;;;;11.32;5.72;;;;;;;-145.79;73.85;78305.78;5303940;28;20519;-75
2023/04/07 14:02:31;;;;;;;9.68;4.93;;;;;;;-145.79;72.81;78326.97;5305788;28;20051;-74
2023/04/07 14:05:02;;;;;;;19.40;3.83;;;;;;;-145.79;73.68;78318.50;5324786;28;20015;-73
2023/04/07 14:07:33;;;;;;;4.88;2.95;;;;;;;-145.79;73.58;78297.31;5313063;28;20027;-75
2023/04/07 14:10:05;;;;;;;7.05;3.00;;;;;;;-145.79;73.05;78305.78;5307146;27;20384;-75
2023/04/07 14:12:36;;;;;;;5.00;2.67;;;;;;;-145.79;72.57;78297.31;5314134;28;20469;-76
2023/04/07 14:15:08;;;;;;;6.30;3.17;;;;;;;-145.79;72.00;78316.38;5309391;28;20088;-75
2023/04/07 14:17:42;;;;;;;11.93;6.70;;;;;;;-145.79;73.10;78295.19;5316955;28;20114;-74
2023/04/07 14:20:14;;;;;;;6.90;2.83;;;;;;;-145.79;71.92;78305.78;5303719;28;20428;-73
2023/04/07 14:22:45;;;;;;;6.60;3.65;;;;;;;-145.79;72.24;78305.78;5302000;28;20076;-74
2023/04/07 14:25:17;;;;;;;11.13;7.30;;;;;;;-145.79;72.89;78293.06;5302495;28;20021;-76
2023/04/07 14:27:48;;;;;;;5.30;3.45;;;;;;;-145.79;72.43;78293.06;5302282;28;20043;-72
2023/04/07 14:30:19;;;;;;;7.70;4.15;;;;;;;-145.79;72.03;78305.78;5306967;28;20475;-75
2023/04/07 14:32:52;;;;;;;7.10;3.78;;;;;;;-145.79;72.78;78303.66;5310719;28;20497;-74
2023/04/07 14:35:23;;;;;;;4.95;3.38;;;;;;;-145.79;73.21;78297.31;5322803;28;20027;-74
2023/04/07 14:37:54;;;;;;;7.20;3.05;;;;;;;-145.79;73.82;78310.03;5308048;28;20031;-73
2023/04/07 14:40:26;;;;;;;5.95;2.70;;;;;;;-145.79;73.64;78312.13;5308185;28;20031;-74
2023/04/07 14:42:58;;;;;;;8.55;3.75;;;;;;;-145.79;73.45;78322.75;5322974;28;20032;-71
2023/04/07 14:45:29;;;;;;;6.43;3.20;;;;;;;-145.79;74.07;78343.94;5322759;28;20034;-70
2023/04/07 14:48:01;;;;;;;7.43;3.10;;;;;;;-145.79;73.94;78331.22;5306533;28;20139;-72
2023/04/07 14:50:32;;;;;;;7.75;4.03;;;;;;;-145.79;74.26;78326.97;5302135;28;20038;-75
2023/04/07 14:53:04;;;;;;;89.65;80.03;;;;;;;-145.79;75.12;78312.13;5301462;28;20328;-75
2023/04/07 14:55:35;;;;;;;18.98;15.30;;;;;;;-145.79;75.04;78318.50;5304736;28;20028;-75
2023/04/07 14:58:07;;;;;;;12.80;4.60;;;;;;;-145.79;75.04;78326.97;5305315;28;20035;-75
2023/04/07 15:00:38;;;;;;;8.65;3.30;;;;;;;-145.79;75.01;78335.47;5317033;28;20048;-71
2023/04/07 15:03:10;;;;;;;7.30;3.65;;;;;;;-145.79;74.87;78339.69;5323964;28;20028;-72
2023/04/07 15:05:44;;;;;;;7.30;3.95;;;;;;;-145.79;74.47;78360.91;5323279;28;20019;-73
2023/04/07 15:08:15;;;;;;;9.57;3.50;;;;;;;-145.79;74.47;78373.63;5307030;28;20032;-70
2023/04/07 15:10:46;;;;;;;7.47;3.50;;;;;;;-145.79;74.67;78379.97;5309452;28;20114;-70
2023/04/07 15:13:18;;;;;;;6.25;3.10;;;;;;;-145.79;74.93;78390.59;5302180;28;20064;-71
2023/04/07 15:15:49;;;;;;;8.23;3.40;;;;;;;-145.79;75.65;78386.34;5301682;28;20032;-71
2023/04/07 15:18:20;;;;;;;9.48;3.13;;;;;;;-145.79;75.62;78413.91;5314191;27;20034;-72
2023/04/07 15:20:52;;;;;;;12.77;6.80;;;;;;;-145.79;75.99;78394.81;5328257;27;20028;-70
2023/04/07 15:23:23;;;;;;;11.38;6.03;;;;;;;-145.79;76.25;78401.19;5323504;28;20034;-72
2023/04/07 15:25:55;;;;;;;16.10;4.55;;;;;;;-145.79;76.37;78392.72;5322687;28;20028;-72
2023/04/07 15:28:27;;;;;;;9.85;6.30;;;;;;;-145.79;76.61;78386.34;5312201;28;20035;-71
2023/04/07 15:30:59;;;;;;;8.07;4.40;;;;;;;-145.79;76.20;78373.63;5322263;28;20019;-72
2023/04/07 15:33:30;;;;;;;13.70;5.00;;;;;;;-145.79;76.53;78382.09;5314883;27;20028;-72
2023/04/07 15:36:03;;;;;;;8.30;3.67;;;;;;;-145.79;75.91;78375.75;5301203;28;20036;-72
2023/04/07 15:38:35;;;;;;;7.45;3.60;;;;;;;-145.79;75.84;78382.09;5301439;28;20024;-71
2023/04/07 15:41:06;;;;;;;8.63;3.50;;;;;;;-145.79;76.07;78377.88;5301387;28;20043;-73
2023/04/07 15:43:38;;;;;;;9.63;3.55;;;;;;;-145.79;75.97;78371.50;5303506;28;20020;-72
2023/04/07 15:46:09;;;;;;;11.27;4.60;;;;;;;-145.79;75.85;78356.66;5313919;28;20027;-72
2023/04/07 15:48:40;;;;;;;15.52;7.85;;;;;;;-145.79;75.22;78356.66;5315121;28;20031;-72
2023/04/07 15:51:14;;;;;;;9.30;6.18;;;;;;;-145.79;75.04;78350.31;5305500;28;20359;-69
2023/04/07 15:53:46;;;;;;;6.25;2.75;;;;;;;-145.79;74.64;78352.44;5315872;28;20054;-70
2023/04/07 15:56:17;;;;;;;11.10;3.83;;;;;;;-145.79;74.24;78360.91;5311270;27;20032;-70
2023/04/07 15:58:48;;;;;;;9.52;4.10;;;;;;;-145.79;73.59;78369.38;5308911;27;20049;-72
2023/04/07 16:01:20;;;;;;;6.10;3.65;;;;;;;-145.79;73.79;78382.09;5307483;28;20478;-70
2023/04/07 16:03:51;;;;;;;9.10;3.25;;;;;;;-145.79;73.70;78379.97;5306105;28;20028;-70
2023/04/07 16:06:22;;;;;;;6.25;3.22;;;;;;;-145.79;73.82;78403.31;5306093;28;20031;-70
2023/04/07 16:08:55;;;;;;;7.63;3.28;;;;;;;-145.79;73.58;78390.59;5304872;28;20077;-70
2023/04/07 16:11:26;;;;;;;10.88;3.17;;;;;;;-145.79;73.56;78390.59;5306023;28;20034;-71
2023/04/07 16:13:57;;;;;;;5.80;3.25;;;;;;;-145.79;72.70;78390.59;5312358;28;20024;-71
2023/04/07 16:16:31;;;;;;;7.68;4.90;;;;;;;-145.79;72.68;78399.06;5326657;28;20038;-71
2023/04/07 16:19:02;;;;;;;19.27;12.35;;;;;;;-145.79;73.00;78392.72;5319872;28;20028;-72
2023/04/07 16:21:33;;;;;;;8.05;2.90;;;;;;;-145.79;72.24;78394.81;5304588;28;20176;-72
2023/04/07 16:24:05;;;;;;;7.13;3.40;;;;;;;-145.79;74.87;78373.63;5305293;28;20506;-75
2023/04/07 16:26:36;;;;;;;49.67;8.95;;;;;;;-145.79;73.79;78373.63;5305628;28;20078;-77
2023/04/07 16:29:07;;;;;;;7.53;3.67;;;;;;;-145.79;73.01;78373.63;5311474;28;20035;-73
2023/04/07 16:31:39;;;;;;;10.57;3.17;;;;;;;-145.79;72.00;78411.78;5327001;28;20111;-76
2023/04/07 16:34:11;;;;;;;11.40;4.18;;;;;;;-145.79;71.71;78407.53;5326933;28;20035;-76
2023/04/07 16:36:42;;;;;;;8.07;3.83;;;;;;;-145.79;72.01;78392.72;5312769;27;20386;-75
2023/04/07 16:39:14;;;;;;;18.35;11.82;;;;;;;-145.79;72.13;78420.28;5305387;28;20020;-73
2023/04/07 16:41:45;;;;;;;11.70;5.70;;;;;;;-145.79;72.05;78422.38;5304459;28;20031;-73
2023/04/07 16:44:16;;;;;;;22.08;17.23;;;;;;;-145.79;72.13;78424.50;5311211;28;20494;-74
2023/04/07 16:46:48;;;;;;;5.65;3.75;;;;;;;-145.79;72.31;78433.00;5326292;28;20023;-75
2023/04/07 16:49:19;;;;;;;11.18;3.70;;;;;;;-145.79;72.47;78435.09;5325269;28;20478;-75
2023/04/07 16:51:51;;;;;;;12.15;5.53;;;;;;;-145.79;72.65;78441.47;5326312;28;20541;-74
2023/04/07 16:54:22;;;;;;;13.95;9.40;;;;;;;-145.79;72.63;78456.31;5306911;28;20051;-75
